sensor_id;sensor_type;location;lat;lon;timestamp;pressure;altitude;pressure_sealevel;temperature;humidity
37610;BME280;23457;51.966;8.230;2023-01-04T00:02:20;101503.69;;;7.76;95.19
37610;BME280;23457;51.966;8.230;2023-01-04T00:04:47;101509.19;;;7.84;94.34
37610;BME280;23457;51.966;8.230;2023-01-04T00:07:14;101505.38;;;7.76;94.48
37610;BME280;23457;51.966;8.230;2023-01-04T00:09:41;101503.63;;;7.75;94.54
37610;BME280;23457;51.966;8.230;2023-01-04T00:12:07;101492.31;;;7.73;94.83
37610;BME280;23457;51.966;8.230;2023-01-04T00:14:34;101489.06;;;7.56;95.13
37610;BME280;23457;51.966;8.230;2023-01-04T00:17:00;101487.28;;;7.76;94.51
37610;BME280;23457;51.966;8.230;2023-01-04T00:19:27;101477.59;;;7.93;93.90
37610;BME280;23457;51.966;8.230;2023-01-04T00:21:53;101479.88;;;7.85;93.70
37610;BME280;23457;51.966;8.230;2023-01-04T00:24:20;101462.81;;;7.90;93.62
37610;BME280;23457;51.966;8.230;2023-01-04T00:26:49;101460.09;;;7.87;94.21
37610;BME280;23457;51.966;8.230;2023-01-04T00:29:15;101462.13;;;7.94;93.49
37610;BME280;23457;51.966;8.230;2023-01-04T00:31:42;101458.81;;;7.98;93.68
37610;BME280;23457;51.966;8.230;2023-01-04T00:34:13;101453.34;;;7.90;93.30
37610;BME280;23457;51.966;8.230;2023-01-04T00:36:40;101450.47;;;8.05;92.42
37610;BME280;23457;51.966;8.230;2023-01-04T00:39:31;101437.53;;;8.05;93.18
37610;BME280;23457;51.966;8.230;2023-01-04T00:41:58;101438.00;;;7.95;93.00
37610;BME280;23457;51.966;8.230;2023-01-04T00:44:31;101429.88;;;7.86;94.28
37610;BME280;23457;51.966;8.230;2023-01-04T00:47:01;101415.88;;;8.03;93.48
37610;BME280;23457;51.966;8.230;2023-01-04T00:49:28;101419.88;;;7.95;93.54
37610;BME280;23457;51.966;8.230;2023-01-04T00:51:55;101423.88;;;8.09;93.22
37610;BME280;23457;51.966;8.230;2023-01-04T00:54:22;101410.94;;;8.09;93.40
37610;BME280;23457;51.966;8.230;2023-01-04T00:56:49;101407.59;;;8.13;93.20
37610;BME280;23457;51.966;8.230;2023-01-04T00:59:18;101410.13;;;8.12;92.84
37610;BME280;23457;51.966;8.230;2023-01-04T01:01:45;101404.25;;;8.16;93.04
37610;BME280;23457;51.966;8.230;2023-01-04T01:04:14;101396.97;;;8.06;93.18
37610;BME280;23457;51.966;8.230;2023-01-04T01:06:41;101383.91;;;8.03;93.99
37610;BME280;23457;51.966;8.230;2023-01-04T01:09:08;101388.84;;;8.19;92.67
37610;BME280;23457;51.966;8.230;2023-01-04T01:11:35;101371.72;;;8.00;93.96
37610;BME280;23457;51.966;8.230;2023-01-04T01:14:04;101371.78;;;8.25;93.17
37610;BME280;23457;51.966;8.230;2023-01-04T01:16:31;101359.09;;;8.08;93.27
37610;BME280;23457;51.966;8.230;2023-01-04T01:19:17;101368.97;;;8.42;91.83
37610;BME280;23457;51.966;8.230;2023-01-04T01:21:44;101359.22;;;8.35;91.95
37610;BME280;23457;51.966;8.230;2023-01-04T01:24:18;101368.72;;;8.34;91.49
37610;BME280;23457;51.966;8.230;2023-01-04T01:26:49;101353.00;;;8.55;90.65
37610;BME280;23457;51.966;8.230;2023-01-04T01:29:15;101341.00;;;8.57;91.23
37610;BME280;23457;51.966;8.230;2023-01-04T01:31:42;101339.53;;;8.65;90.81
37610;BME280;23457;51.966;8.230;2023-01-04T01:34:09;101349.53;;;8.54;91.12
37610;BME280;23457;51.966;8.230;2023-01-04T01:36:35;101339.41;;;8.60;90.65
37610;BME280;23457;51.966;8.230;2023-01-04T01:39:03;101345.03;;;8.49;91.42
37610;BME280;23457;51.966;8.230;2023-01-04T01:41:34;101337.69;;;8.61;90.86
37610;BME280;23457;51.966;8.230;2023-01-04T01:44:04;101337.34;;;8.52;90.79
37610;BME280;23457;51.966;8.230;2023-01-04T01:51:51;101316.84;;;8.58;90.67
37610;BME280;23457;51.966;8.230;2023-01-04T01:54:23;101311.59;;;8.82;91.04
37610;BME280;23457;51.966;8.230;2023-01-04T01:56:55;101310.22;;;8.66;91.86
37610;BME280;23457;51.966;8.230;2023-01-04T01:59:23;101297.69;;;8.80;90.81
37610;BME280;23457;51.966;8.230;2023-01-04T02:01:51;101299.34;;;8.78;90.94
37610;BME280;23457;51.966;8.230;2023-01-04T02:04:18;101297.25;;;8.93;90.15
37610;BME280;23457;51.966;8.230;2023-01-04T02:06:50;101286.44;;;8.79;91.12
37610;BME280;23457;51.966;8.230;2023-01-04T02:09:19;101281.50;;;8.87;91.38
37610;BME280;23457;51.966;8.230;2023-01-04T02:11:46;101286.56;;;8.82;92.35
37610;BME280;23457;51.966;8.230;2023-01-04T02:14:16;101271.38;;;8.94;92.48
37610;BME280;23457;51.966;8.230;2023-01-04T02:19:50;101272.44;;;8.73;96.39
37610;BME280;23457;51.966;8.230;2023-01-04T02:33:26;101234.22;;;8.67;100.00
37610;BME280;23457;51.966;8.230;2023-01-04T02:36:25;101222.59;;;8.54;100.00
37610;BME280;23457;51.966;8.230;2023-01-04T02:39:28;101218.09;;;8.76;100.00
37610;BME280;23457;51.966;8.230;2023-01-04T02:44:31;101201.81;;;8.53;100.00
37610;BME280;23457;51.966;8.230;2023-01-04T02:47:25;101208.00;;;8.56;100.00
37610;BME280;23457;51.966;8.230;2023-01-04T02:50:47;101192.09;;;8.46;100.00
37610;BME280;23457;51.966;8.230;2023-01-04T02:53:29;101199.94;;;8.49;100.00
37610;BME280;23457;51.966;8.230;2023-01-04T02:56:19;101186.38;;;8.56;100.00
37610;BME280;23457;51.966;8.230;2023-01-04T03:02:23;101173.31;;;8.53;100.00
37610;BME280;23457;51.966;8.230;2023-01-04T03:05:33;101166.69;;;8.34;100.00
37610;BME280;23457;51.966;8.230;2023-01-04T03:11:14;101167.75;;;8.68;100.00
37610;BME280;23457;51.966;8.230;2023-01-04T03:14:20;101148.75;;;8.40;100.00
37610;BME280;23457;51.966;8.230;2023-01-04T03:17:01;101145.28;;;8.40;100.00
37610;BME280;23457;51.966;8.230;2023-01-04T03:19:30;101141.13;;;8.45;100.00
37610;BME280;23457;51.966;8.230;2023-01-04T03:22:17;101126.78;;;8.56;100.00
37610;BME280;23457;51.966;8.230;2023-01-04T03:25:07;101117.72;;;8.70;100.00
37610;BME280;23457;51.966;8.230;2023-01-04T03:27:54;101115.75;;;8.63;100.00
37610;BME280;23457;51.966;8.230;2023-01-04T03:30:47;101106.59;;;8.74;100.00
37610;BME280;23457;51.966;8.230;2023-01-04T03:33:36;101107.63;;;8.51;100.00
37610;BME280;23457;51.966;8.230;2023-01-04T03:36:40;101099.91;;;8.52;100.00
37610;BME280;23457;51.966;8.230;2023-01-04T03:39:38;101095.44;;;8.47;100.00
37610;BME280;23457;51.966;8.230;2023-01-04T03:45:22;101074.13;;;8.85;100.00
37610;BME280;23457;51.966;8.230;2023-01-04T03:48:15;101075.78;;;8.83;100.00
37610;BME280;23457;51.966;8.230;2023-01-04T03:51:09;101061.81;;;8.78;100.00
37610;BME280;23457;51.966;8.230;2023-01-04T03:53:46;101063.00;;;8.89;100.00
37610;BME280;23457;51.966;8.230;2023-01-04T03:56:16;101051.78;;;8.90;100.00
37610;BME280;23457;51.966;8.230;2023-01-04T03:58:44;101040.72;;;8.96;100.00
37610;BME280;23457;51.966;8.230;2023-01-04T04:01:11;101048.50;;;8.96;100.00
37610;BME280;23457;51.966;8.230;2023-01-04T04:03:38;101056.81;;;8.84;100.00
37610;BME280;23457;51.966;8.230;2023-01-04T04:06:24;101050.47;;;9.05;100.00
37610;BME280;23457;51.966;8.230;2023-01-04T04:09:09;101040.00;;;9.02;100.00
37610;BME280;23457;51.966;8.230;2023-01-04T04:11:36;101052.53;;;9.18;100.00
37610;BME280;23457;51.966;8.230;2023-01-04T04:14:02;101033.41;;;9.14;100.00
37610;BME280;23457;51.966;8.230;2023-01-04T04:16:29;101036.19;;;9.20;100.00
37610;BME280;23457;51.966;8.230;2023-01-04T04:18:56;101027.63;;;9.23;100.00
37610;BME280;23457;51.966;8.230;2023-01-04T04:21:22;101031.06;;;9.22;100.00
37610;BME280;23457;51.966;8.230;2023-01-04T04:23:49;101013.00;;;9.26;100.00
37610;BME280;23457;51.966;8.230;2023-01-04T04:26:16;101007.53;;;9.16;100.00
37610;BME280;23457;51.966;8.230;2023-01-04T04:28:43;101000.84;;;9.24;100.00
37610;BME280;23457;51.966;8.230;2023-01-04T04:31:09;101011.69;;;9.42;100.00
37610;BME280;23457;51.966;8.230;2023-01-04T04:33:37;101004.81;;;9.44;100.00
37610;BME280;23457;51.966;8.230;2023-01-04T04:36:04;100991.66;;;9.37;100.00
37610;BME280;23457;51.966;8.230;2023-01-04T04:38:31;100983.91;;;9.38;100.00
37610;BME280;23457;51.966;8.230;2023-01-04T04:40:57;100977.72;;;9.67;100.00
37610;BME280;23457;51.966;8.230;2023-01-04T04:43:43;100961.94;;;9.58;100.00
37610;BME280;23457;51.966;8.230;2023-01-04T04:46:09;100961.22;;;9.65;100.00
37610;BME280;23457;51.966;8.230;2023-01-04T04:48:36;100947.75;;;9.44;100.00
37610;BME280;23457;51.966;8.230;2023-01-04T04:51:03;100940.22;;;9.55;100.00
37610;BME280;23457;51.966;8.230;2023-01-04T04:53:29;100956.81;;;9.61;100.00
37610;BME280;23457;51.966;8.230;2023-01-04T04:55:56;100959.47;;;9.64;100.00
37610;BME280;23457;51.966;8.230;2023-01-04T04:58:23;100958.81;;;9.73;100.00
37610;BME280;23457;51.966;8.230;2023-01-04T05:00:50;100945.59;;;9.62;100.00
37610;BME280;23457;51.966;8.230;2023-01-04T05:03:16;100957.50;;;9.54;100.00
37610;BME280;23457;51.966;8.230;2023-01-04T05:05:43;100948.47;;;9.75;100.00
37610;BME280;23457;51.966;8.230;2023-01-04T05:08:10;100961.09;;;9.59;100.00
37610;BME280;23457;51.966;8.230;2023-01-04T05:10:37;100958.50;;;9.59;100.00
37610;BME280;23457;51.966;8.230;2023-01-04T05:13:05;100953.22;;;9.56;100.00
37610;BME280;23457;51.966;8.230;2023-01-04T05:15:35;100964.66;;;9.64;100.00
37610;BME280;23457;51.966;8.230;2023-01-04T05:18:03;100950.75;;;9.61;100.00
37610;BME280;23457;51.966;8.230;2023-01-04T05:20:30;100938.63;;;9.60;100.00
37610;BME280;23457;51.966;8.230;2023-01-04T05:22:57;100960.31;;;9.63;100.00
37610;BME280;23457;51.966;8.230;2023-01-04T05:25:23;100948.84;;;9.54;100.00
37610;BME280;23457;51.966;8.230;2023-01-04T05:27:50;100941.53;;;9.74;100.00
37610;BME280;23457;51.966;8.230;2023-01-04T05:30:17;100932.03;;;9.76;100.00
37610;BME280;23457;51.966;8.230;2023-01-04T05:33:03;100950.59;;;9.55;100.00
37610;BME280;23457;51.966;8.230;2023-01-04T05:35:31;100941.56;;;9.77;100.00
37610;BME280;23457;51.966;8.230;2023-01-04T05:37:57;100945.59;;;9.62;100.00
37610;BME280;23457;51.966;8.230;2023-01-04T05:40:24;100937.97;;;9.70;100.00
37610;BME280;23457;51.966;8.230;2023-01-04T05:42:51;100938.03;;;9.72;100.00
37610;BME280;23457;51.966;8.230;2023-01-04T05:45:18;100927.63;;;9.72;100.00
37610;BME280;23457;51.966;8.230;2023-01-04T05:47:50;100924.84;;;9.62;100.00
37610;BME280;23457;51.966;8.230;2023-01-04T05:50:18;100924.22;;;9.73;100.00
37610;BME280;23457;51.966;8.230;2023-01-04T05:52:45;100929.53;;;9.79;100.00
37610;BME280;23457;51.966;8.230;2023-01-04T05:55:12;100919.09;;;9.77;100.00
37610;BME280;23457;51.966;8.230;2023-01-04T05:57:39;100899.81;;;10.05;100.00
37610;BME280;23457;51.966;8.230;2023-01-04T06:00:08;100902.06;;;9.90;100.00
37610;BME280;23457;51.966;8.230;2023-01-04T06:02:37;100905.66;;;9.95;100.00
37610;BME280;23457;51.966;8.230;2023-01-04T06:05:05;100901.22;;;9.91;100.00
37610;BME280;23457;51.966;8.230;2023-01-04T06:07:32;100891.84;;;9.96;100.00
37610;BME280;23457;51.966;8.230;2023-01-04T06:09:58;100892.56;;;9.90;100.00
37610;BME280;23457;51.966;8.230;2023-01-04T06:12:25;100898.00;;;10.02;100.00
37610;BME280;23457;51.966;8.230;2023-01-04T06:14:52;100889.06;;;9.87;100.00
37610;BME280;23457;51.966;8.230;2023-01-04T06:17:18;100883.28;;;10.00;100.00
37610;BME280;23457;51.966;8.230;2023-01-04T06:19:45;100886.03;;;10.07;100.00
37610;BME280;23457;51.966;8.230;2023-01-04T06:22:12;100892.19;;;10.14;100.00
37610;BME280;23457;51.966;8.230;2023-01-04T06:24:38;100888.94;;;9.82;100.00
37610;BME280;23457;51.966;8.230;2023-01-04T06:27:05;100876.00;;;9.84;100.00
37610;BME280;23457;51.966;8.230;2023-01-04T06:29:31;100881.78;;;10.11;100.00
37610;BME280;23457;51.966;8.230;2023-01-04T06:31:58;100885.97;;;10.06;100.00
37610;BME280;23457;51.966;8.230;2023-01-04T06:34:25;100874.50;;;9.95;100.00
37610;BME280;23457;51.966;8.230;2023-01-04T06:36:56;100865.25;;;10.07;100.00
37610;BME280;23457;51.966;8.230;2023-01-04T06:39:23;100870.44;;;10.07;100.00
37610;BME280;23457;51.966;8.230;2023-01-04T06:41:50;100870.53;;;10.12;100.00
37610;BME280;23457;51.966;8.230;2023-01-04T06:44:16;100871.41;;;10.14;100.00
37610;BME280;23457;51.966;8.230;2023-01-04T06:46:43;100862.72;;;10.11;100.00
37610;BME280;23457;51.966;8.230;2023-01-04T06:49:10;100867.06;;;10.12;100.00
37610;BME280;23457;51.966;8.230;2023-01-04T06:51:36;100865.22;;;10.06;100.00
37610;BME280;23457;51.966;8.230;2023-01-04T06:54:03;100866.28;;;10.17;100.00
37610;BME280;23457;51.966;8.230;2023-01-04T06:56:30;100850.53;;;10.08;100.00
37610;BME280;23457;51.966;8.230;2023-01-04T06:58:58;100854.75;;;10.03;100.00
37610;BME280;23457;51.966;8.230;2023-01-04T07:01:25;100854.84;;;10.07;100.00
37610;BME280;23457;51.966;8.230;2023-01-04T07:03:51;100851.25;;;9.99;100.00
37610;BME280;23457;51.966;8.230;2023-01-04T07:06:18;100834.97;;;10.08;100.00
37610;BME280;23457;51.966;8.230;2023-01-04T07:08:45;100827.75;;;9.95;100.00
37610;BME280;23457;51.966;8.230;2023-01-04T07:11:11;100840.84;;;9.99;100.00
37610;BME280;23457;51.966;8.230;2023-01-04T07:13:38;100841.53;;;9.91;100.00
37610;BME280;23457;51.966;8.230;2023-01-04T07:16:05;100839.06;;;9.97;100.00
37610;BME280;23457;51.966;8.230;2023-01-04T07:18:32;100831.97;;;9.90;100.00
37610;BME280;23457;51.966;8.230;2023-01-04T07:20:58;100838.16;;;9.95;100.00
37610;BME280;23457;51.966;8.230;2023-01-04T07:23:25;100832.88;;;9.92;100.00
37610;BME280;23457;51.966;8.230;2023-01-04T07:25:51;100836.22;;;10.25;100.00
37610;BME280;23457;51.966;8.230;2023-01-04T07:28:18;100837.56;;;10.08;100.00
37610;BME280;23457;51.966;8.230;2023-01-04T07:31:05;100833.28;;;10.10;100.00
37610;BME280;23457;51.966;8.230;2023-01-04T07:33:33;100838.25;;;10.01;100.00
37610;BME280;23457;51.966;8.230;2023-01-04T07:36:04;100837.41;;;10.02;100.00
37610;BME280;23457;51.966;8.230;2023-01-04T07:38:34;100832.25;;;10.03;100.00
37610;BME280;23457;51.966;8.230;2023-01-04T07:41:01;100840.94;;;10.04;100.00
37610;BME280;23457;51.966;8.230;2023-01-04T07:43:28;100838.25;;;9.99;100.00
37610;BME280;23457;51.966;8.230;2023-01-04T07:45:54;100848.84;;;10.10;100.00
37610;BME280;23457;51.966;8.230;2023-01-04T07:48:21;100841.09;;;10.12;100.00
37610;BME280;23457;51.966;8.230;2023-01-04T07:50:49;100844.44;;;10.06;100.00
37610;BME280;23457;51.966;8.230;2023-01-04T07:53:15;100846.78;;;9.94;100.00
37610;BME280;23457;51.966;8.230;2023-01-04T07:55:42;100831.59;;;10.12;100.00
37610;BME280;23457;51.966;8.230;2023-01-04T07:58:09;100840.03;;;10.03;100.00
37610;BME280;23457;51.966;8.230;2023-01-04T08:00:36;100828.88;;;10.07;100.00
37610;BME280;23457;51.966;8.230;2023-01-04T08:03:02;100818.56;;;10.11;100.00
37610;BME280;23457;51.966;8.230;2023-01-04T08:05:33;100806.25;;;10.00;100.00
37610;BME280;23457;51.966;8.230;2023-01-04T08:08:00;100815.56;;;9.91;100.00
37610;BME280;23457;51.966;8.230;2023-01-04T08:10:27;100810.50;;;9.97;100.00
37610;BME280;23457;51.966;8.230;2023-01-04T08:12:53;100807.25;;;10.07;100.00
37610;BME280;23457;51.966;8.230;2023-01-04T08:15:20;100797.53;;;9.97;100.00
37610;BME280;23457;51.966;8.230;2023-01-04T08:17:47;100807.31;;;10.10;100.00
37610;BME280;23457;51.966;8.230;2023-01-04T08:20:14;100813.53;;;10.18;100.00
37610;BME280;23457;51.966;8.230;2023-01-04T08:22:42;100811.84;;;10.20;100.00
37610;BME280;23457;51.966;8.230;2023-01-04T08:25:09;100808.34;;;10.18;100.00
37610;BME280;23457;51.966;8.230;2023-01-04T08:27:39;100801.53;;;10.23;100.00
37610;BME280;23457;51.966;8.230;2023-01-04T08:30:07;100804.97;;;10.22;100.00
37610;BME280;23457;51.966;8.230;2023-01-04T08:32:34;100796.41;;;10.28;100.00
37610;BME280;23457;51.966;8.230;2023-01-04T08:35:00;100792.16;;;10.31;100.00
37610;BME280;23457;51.966;8.230;2023-01-04T08:37:27;100789.44;;;10.27;100.00
37610;BME280;23457;51.966;8.230;2023-01-04T08:39:55;100792.16;;;10.31;100.00
37610;BME280;23457;51.966;8.230;2023-01-04T08:42:21;100783.09;;;10.11;100.00
37610;BME280;23457;51.966;8.230;2023-01-04T08:44:57;100781.41;;;10.13;100.00
37610;BME280;23457;51.966;8.230;2023-01-04T08:47:51;100784.28;;;10.28;100.00
37610;BME280;23457;51.966;8.230;2023-01-04T08:50:18;100784.31;;;10.30;100.00
37610;BME280;23457;51.966;8.230;2023-01-04T08:52:46;100775.78;;;10.35;100.00
37610;BME280;23457;51.966;8.230;2023-01-04T08:55:13;100776.91;;;10.50;100.00
37610;BME280;23457;51.966;8.230;2023-01-04T08:57:48;100771.63;;;10.47;100.00
37610;BME280;23457;51.966;8.230;2023-01-04T09:00:15;100778.44;;;10.40;100.00
37610;BME280;23457;51.966;8.230;2023-01-04T09:02:44;100768.81;;;10.34;100.00
37610;BME280;23457;51.966;8.230;2023-01-04T09:05:11;100768.25;;;10.52;100.00
37610;BME280;23457;51.966;8.230;2023-01-04T09:07:48;100769.25;;;10.59;100.00
37610;BME280;23457;51.966;8.230;2023-01-04T09:10:15;100773.47;;;10.54;100.00
37610;BME280;23457;51.966;8.230;2023-01-04T09:12:42;100756.03;;;10.47;100.00
37610;BME280;23457;51.966;8.230;2023-01-04T09:15:09;100757.94;;;10.57;100.00
37610;BME280;23457;51.966;8.230;2023-01-04T09:17:35;100751.78;;;10.50;100.00
37610;BME280;23457;51.966;8.230;2023-01-04T09:20:22;100738.72;;;10.46;100.00
37610;BME280;23457;51.966;8.230;2023-01-04T09:22:48;100736.94;;;10.45;100.00
37610;BME280;23457;51.966;8.230;2023-01-04T09:25:15;100746.38;;;10.39;100.00
37610;BME280;23457;51.966;8.230;2023-01-04T09:27:43;100746.66;;;10.56;100.00
37610;BME280;23457;51.966;8.230;2023-01-04T09:30:11;100745.69;;;10.48;100.00
37610;BME280;23457;51.966;8.230;2023-01-04T09:32:37;100737.94;;;10.53;100.00
37610;BME280;23457;51.966;8.230;2023-01-04T09:35:04;100730.06;;;10.47;100.00
37610;BME280;23457;51.966;8.230;2023-01-04T09:37:31;100724.94;;;10.53;100.00
37610;BME280;23457;51.966;8.230;2023-01-04T09:39:58;100735.63;;;10.69;100.00
37610;BME280;23457;51.966;8.230;2023-01-04T09:42:29;100738.84;;;10.55;100.00
37610;BME280;23457;51.966;8.230;2023-01-04T09:45:21;100739.66;;;10.52;100.00
37610;BME280;23457;51.966;8.230;2023-01-04T09:48:02;100746.84;;;10.67;100.00
37610;BME280;23457;51.966;8.230;2023-01-04T09:50:55;100737.34;;;10.69;100.00
37610;BME280;23457;51.966;8.230;2023-01-04T09:53:21;100748.97;;;10.38;100.00
37610;BME280;23457;51.966;8.230;2023-01-04T09:55:49;100743.13;;;10.50;100.00
37610;BME280;23457;51.966;8.230;2023-01-04T09:58:39;100744.16;;;10.61;100.00
37610;BME280;23457;51.966;8.230;2023-01-04T10:01:13;100740.72;;;10.62;100.00
37610;BME280;23457;51.966;8.230;2023-01-04T10:04:02;100735.66;;;10.71;100.00
37610;BME280;23457;51.966;8.230;2023-01-04T10:06:32;100730.41;;;10.68;100.00
37610;BME280;23457;51.966;8.230;2023-01-04T10:09:03;100730.31;;;10.62;100.00
37610;BME280;23457;51.966;8.230;2023-01-04T10:20:10;100709.91;;;10.32;100.00
37610;BME280;23457;51.966;8.230;2023-01-04T10:24:05;100699.84;;;10.53;100.00
37610;BME280;23457;51.966;8.230;2023-01-04T10:26:14;100711.03;;;10.48;100.00
37610;BME280;23457;51.966;8.230;2023-01-04T10:31:26;100687.94;;;10.67;100.00
37610;BME280;23457;51.966;8.230;2023-01-04T10:34:26;100701.75;;;10.63;100.00
37610;BME280;23457;51.966;8.230;2023-01-04T10:36:59;100686.28;;;10.72;100.00
37610;BME280;23457;51.966;8.230;2023-01-04T10:39:31;100684.66;;;10.81;100.00
37610;BME280;23457;51.966;8.230;2023-01-04T10:41:59;100685.72;;;10.93;100.00
37610;BME280;23457;51.966;8.230;2023-01-04T10:44:43;100669.03;;;10.77;100.00
37610;BME280;23457;51.966;8.230;2023-01-04T10:49:53;100677.00;;;10.91;100.00
37610;BME280;23457;51.966;8.230;2023-01-04T10:52:30;100665.91;;;11.01;100.00
37610;BME280;23457;51.966;8.230;2023-01-04T10:55:07;100666.75;;;11.00;100.00
37610;BME280;23457;51.966;8.230;2023-01-04T11:00:25;100659.81;;;10.99;100.00
37610;BME280;23457;51.966;8.230;2023-01-04T11:03:13;100673.72;;;11.04;100.00
37610;BME280;23457;51.966;8.230;2023-01-04T11:05:50;100672.13;;;11.16;100.00
37610;BME280;23457;51.966;8.230;2023-01-04T11:08:44;100660.94;;;11.20;100.00
37610;BME280;23457;51.966;8.230;2023-01-04T11:11:11;100667.03;;;11.22;100.00
37610;BME280;23457;51.966;8.230;2023-01-04T11:13:40;100665.22;;;11.18;100.00
37610;BME280;23457;51.966;8.230;2023-01-04T11:16:07;100651.56;;;11.34;100.00
37610;BME280;23457;51.966;8.230;2023-01-04T11:18:36;100655.81;;;11.27;100.00
37610;BME280;23457;51.966;8.230;2023-01-04T11:21:10;100645.38;;;11.23;100.00
37610;BME280;23457;51.966;8.230;2023-01-04T11:23:38;100644.47;;;11.21;100.00
37610;BME280;23457;51.966;8.230;2023-01-04T11:26:13;100643.56;;;11.19;100.00
37610;BME280;23457;51.966;8.230;2023-01-04T11:28:53;100647.16;;;11.25;100.00
37610;BME280;23457;51.966;8.230;2023-01-04T11:34:01;100644.56;;;11.30;100.00
37610;BME280;23457;51.966;8.230;2023-01-04T11:39:02;100634.34;;;11.45;100.00
37610;BME280;23457;51.966;8.230;2023-01-04T11:41:29;100620.31;;;11.31;100.00
37610;BME280;23457;51.966;8.230;2023-01-04T11:46:28;100634.28;;;11.39;100.00
37610;BME280;23457;51.966;8.230;2023-01-04T11:48:56;100626.44;;;11.36;100.00
37610;BME280;23457;51.966;8.230;2023-01-04T11:57:27;100593.44;;;11.32;100.00
37610;BME280;23457;51.966;8.230;2023-01-04T12:00:17;100618.56;;;11.30;100.00
37610;BME280;23457;51.966;8.230;2023-01-04T12:02:45;100601.53;;;11.58;100.00
37610;BME280;23457;51.966;8.230;2023-01-04T12:05:29;100596.28;;;11.56;100.00
37610;BME280;23457;51.966;8.230;2023-01-04T12:07:57;100601.47;;;11.55;100.00
37610;BME280;23457;51.966;8.230;2023-01-04T12:10:26;100596.38;;;11.65;100.00
37610;BME280;23457;51.966;8.230;2023-01-04T12:12:56;100592.88;;;11.60;100.00
37610;BME280;23457;51.966;8.230;2023-01-04T12:15:35;100599.81;;;11.61;100.00
37610;BME280;23457;51.966;8.230;2023-01-04T12:18:18;100605.03;;;11.61;100.00
37610;BME280;23457;51.966;8.230;2023-01-04T12:20:48;100582.38;;;11.53;100.00
37610;BME280;23457;51.966;8.230;2023-01-04T12:23:14;100575.53;;;11.62;100.00
37610;BME280;23457;51.966;8.230;2023-01-04T12:25:44;100579.06;;;11.70;100.00
37610;BME280;23457;51.966;8.230;2023-01-04T12:31:31;100579.25;;;11.86;100.00
37610;BME280;23457;51.966;8.230;2023-01-04T12:36:58;100582.38;;;11.53;100.00
37610;BME280;23457;51.966;8.230;2023-01-04T12:39:42;100598.91;;;11.58;100.00
37610;BME280;23457;51.966;8.230;2023-01-04T12:59:54;100547.09;;;11.77;100.00
37610;BME280;23457;51.966;8.230;2023-01-04T13:02:24;100540.16;;;11.81;100.00
37610;BME280;23457;51.966;8.230;2023-01-04T13:05:34;100545.34;;;11.76;100.00
37610;BME280;23457;51.966;8.230;2023-01-04T13:08:21;100533.19;;;11.80;100.00
37610;BME280;23457;51.966;8.230;2023-01-04T13:14:29;100546.28;;;11.91;100.00
37610;BME280;23457;51.966;8.230;2023-01-04T13:19:37;100551.63;;;12.03;100.00
37610;BME280;23457;51.966;8.230;2023-01-04T13:22:20;100542.88;;;11.96;100.00
37610;BME280;23457;51.966;8.230;2023-01-04T13:24:56;100552.31;;;11.82;100.00
37610;BME280;23457;51.966;8.230;2023-01-04T13:27:28;100542.00;;;11.96;100.00
37610;BME280;23457;51.966;8.230;2023-01-04T13:29:55;100542.88;;;11.96;100.00
37610;BME280;23457;51.966;8.230;2023-01-04T13:32:24;100528.13;;;11.98;100.00
37610;BME280;23457;51.966;8.230;2023-01-04T13:35:02;100521.28;;;12.11;100.00
37610;BME280;23457;51.966;8.230;2023-01-04T13:38:03;100528.16;;;12.04;100.00
37610;BME280;23457;51.966;8.230;2023-01-04T13:40:42;100540.41;;;12.16;100.00
37610;BME280;23457;51.966;8.230;2023-01-04T13:48:11;100529.13;;;12.15;100.00
37610;BME280;23457;51.966;8.230;2023-01-04T13:50:44;100514.31;;;12.08;100.00
37610;BME280;23457;51.966;8.230;2023-01-04T13:53:20;100514.28;;;12.05;100.00
37610;BME280;23457;51.966;8.230;2023-01-04T13:56:18;100529.03;;;12.02;100.00
37610;BME280;23457;51.966;8.230;2023-01-04T13:58:45;100521.28;;;12.12;100.00
37610;BME280;23457;51.966;8.230;2023-01-04T14:03:42;100528.28;;;12.15;100.00
37610;BME280;23457;51.966;8.230;2023-01-04T14:06:24;100523.06;;;12.15;100.00
37610;BME280;23457;51.966;8.230;2023-01-04T14:08:53;100529.97;;;12.13;100.00
37610;BME280;23457;51.966;8.230;2023-01-04T14:11:26;100522.16;;;12.16;100.00
37610;BME280;23457;51.966;8.230;2023-01-04T14:19:58;100517.84;;;12.19;100.00
37610;BME280;23457;51.966;8.230;2023-01-04T14:24:55;100531.88;;;12.43;100.00
37610;BME280;23457;51.966;8.230;2023-01-04T14:27:39;100525.03;;;12.60;100.00
37610;BME280;23457;51.966;8.230;2023-01-04T14:32:54;100533.66;;;12.45;100.00
37610;BME280;23457;51.966;8.230;2023-01-04T14:35:22;100531.06;;;12.48;100.00
37610;BME280;23457;51.966;8.230;2023-01-04T14:37:49;100543.25;;;12.54;100.00
37610;BME280;23457;51.966;8.230;2023-01-04T14:40:25;100530.16;;;12.45;100.00
37610;BME280;23457;51.966;8.230;2023-01-04T14:42:53;100535.44;;;12.55;100.00
37610;BME280;23457;51.966;8.230;2023-01-04T14:45:20;100534.50;;;12.43;100.00
37610;BME280;23457;51.966;8.230;2023-01-04T14:47:46;100540.66;;;12.52;100.00
37610;BME280;23457;51.966;8.230;2023-01-04T14:50:14;100528.53;;;12.62;100.00
37610;BME280;23457;51.966;8.230;2023-01-04T14:52:52;100509.34;;;12.55;100.00
37610;BME280;23457;51.966;8.230;2023-01-04T14:55:19;100516.38;;;12.63;100.00
37610;BME280;23457;51.966;8.230;2023-01-04T14:57:48;100519.75;;;12.48;100.00
37610;BME280;23457;51.966;8.230;2023-01-04T15:00:15;100528.44;;;12.47;100.00
37610;BME280;23457;51.966;8.230;2023-01-04T15:02:45;100528.41;;;12.44;100.00